createdAt,value
2023-05-21T00:00:40.048Z,13.75
2023-05-21T00:04:12.410Z,13.74
2023-05-21T00:06:47.046Z,13.71
2023-05-21T00:10:09.329Z,13.68
2023-05-21T00:13:09.358Z,13.69
2023-05-21T00:16:13.769Z,13.68
2023-05-21T00:19:25.306Z,13.68
2023-05-21T00:22:07.223Z,13.68
2023-05-21T00:24:57.321Z,13.69
2023-05-21T00:28:07.472Z,13.68
2023-05-21T00:31:03.804Z,13.68
2023-05-21T00:33:35.932Z,13.70
2023-05-21T00:36:40.980Z,13.72
2023-05-21T00:39:41.933Z,13.74
2023-05-21T00:42:27.521Z,13.77
2023-05-21T00:45:16.222Z,13.83
2023-05-21T00:47:59.367Z,13.86
2023-05-21T00:51:03.319Z,13.90
2023-05-21T00:53:58.430Z,13.93
2023-05-21T00:56:57.910Z,13.95
2023-05-21T01:00:04.807Z,13.96
2023-05-21T01:03:00.448Z,13.98
2023-05-21T01:05:51.235Z,14.02
2023-05-21T01:09:05.618Z,14.05
2023-05-21T01:12:01.451Z,14.08
2023-05-21T01:14:53.353Z,14.11
2023-05-21T01:17:40.318Z,14.15
2023-05-21T01:20:49.511Z,14.18
2023-05-21T01:23:53.401Z,14.19
2023-05-21T01:26:50.972Z,14.21
2023-05-21T01:29:32.658Z,14.24
2023-05-21T01:32:50.323Z,14.25
2023-05-21T01:36:03.326Z,14.26
2023-05-21T01:39:09.714Z,14.29
2023-05-21T01:42:15.221Z,14.31
2023-05-21T01:45:19.767Z,14.32
2023-05-21T01:48:30.030Z,14.34
2023-05-21T01:51:24.838Z,14.35
2023-05-21T01:54:14.917Z,14.29
2023-05-21T01:57:27.864Z,14.33
2023-05-21T02:00:18.359Z,14.31
2023-05-21T02:03:04.504Z,14.29
2023-05-21T02:05:55.963Z,14.29
2023-05-21T02:08:55.148Z,14.31
2023-05-21T02:11:48.017Z,14.30
2023-05-21T02:14:39.085Z,14.32
2023-05-21T02:17:56.410Z,14.34
2023-05-21T02:20:49.123Z,14.37
2023-05-21T02:23:44.111Z,14.38
2023-05-21T02:27:11.578Z,14.40
2023-05-21T02:29:51.242Z,14.42
2023-05-21T02:32:46.219Z,14.45
2023-05-21T02:36:02.055Z,14.48
2023-05-21T02:38:46.178Z,14.50
2023-05-21T02:41:38.517Z,14.55
2023-05-21T02:44:48.755Z,14.55
2023-05-21T02:47:33.897Z,14.58
2023-05-21T02:50:23.296Z,14.60
2023-05-21T02:53:17.895Z,14.61
2023-05-21T02:55:55.489Z,14.63
2023-05-21T02:58:51.313Z,14.65
2023-05-21T03:01:48.213Z,14.67
2023-05-21T03:04:28.824Z,14.67
2023-05-21T03:07:14.500Z,14.69
2023-05-21T03:10:21.709Z,14.72
2023-05-21T03:13:09.559Z,14.72
2023-05-21T03:15:41.922Z,14.74
2023-05-21T03:18:29.480Z,14.74
2023-05-21T03:21:16.241Z,14.79
2023-05-21T03:23:49.929Z,14.80
2023-05-21T03:26:50.600Z,14.82
2023-05-21T03:29:47.653Z,14.86
2023-05-21T03:32:37.426Z,14.89
2023-05-21T03:35:19.810Z,14.93
2023-05-21T03:38:11.106Z,14.98
2023-05-21T03:40:48.836Z,15.06
2023-05-21T03:43:45.588Z,15.11
2023-05-21T03:46:29.078Z,15.24
2023-05-21T03:49:38.053Z,15.37
2023-05-21T03:52:16.660Z,15.39
2023-05-21T03:54:56.716Z,15.55
2023-05-21T03:57:32.730Z,15.64
2023-05-21T04:00:01.677Z,15.74
2023-05-21T04:02:37.824Z,15.84
2023-05-21T04:05:18.889Z,15.94
2023-05-21T04:07:50.306Z,16.03
2023-05-21T04:10:29.161Z,16.14
2023-05-21T04:13:01.287Z,16.23
2023-05-21T04:15:36.930Z,16.32
2023-05-21T04:18:13.977Z,16.43
2023-05-21T04:21:21.937Z,16.53
2023-05-21T04:24:00.976Z,16.64
2023-05-21T04:26:50.477Z,16.75
2023-05-21T04:29:34.039Z,16.85
2023-05-21T04:32:18.373Z,16.96
2023-05-21T04:34:47.413Z,17.05
2023-05-21T04:37:28.346Z,17.14
2023-05-21T04:39:58.564Z,17.26
2023-05-21T04:42:36.980Z,17.35
2023-05-21T04:45:12.919Z,17.48
2023-05-21T04:47:48.296Z,17.59
2023-05-21T04:50:17.965Z,17.69
2023-05-21T04:52:56.999Z,17.80
2023-05-21T04:55:26.432Z,17.93
2023-05-21T04:57:59.748Z,17.99
2023-05-21T05:00:28.438Z,18.14
2023-05-21T05:02:57.275Z,18.26
2023-05-21T05:05:26.378Z,18.37
2023-05-21T05:07:58.652Z,18.48
2023-05-21T05:10:30.088Z,18.61
2023-05-21T05:13:04.727Z,18.68
2023-05-21T05:15:33.510Z,18.86
2023-05-21T05:18:02.637Z,19.00
2023-05-21T05:20:31.605Z,19.12
2023-05-21T05:23:00.435Z,19.24
2023-05-21T05:25:28.973Z,19.37
2023-05-21T05:28:00.650Z,19.48
2023-05-21T05:30:30.137Z,19.59
2023-05-21T05:33:06.343Z,19.71
2023-05-21T05:35:35.529Z,19.80
2023-05-21T05:38:04.205Z,19.87
2023-05-21T05:40:35.744Z,19.97
2023-05-21T05:43:07.295Z,20.08
2023-05-21T05:45:37.445Z,20.17
2023-05-21T05:48:11.124Z,20.24
2023-05-21T05:50:39.890Z,20.35
2023-05-21T05:53:09.101Z,20.47
2023-05-21T05:55:40.514Z,20.57
2023-05-21T05:58:09.536Z,20.66
2023-05-21T06:00:50.129Z,20.76
2023-05-21T06:03:20.110Z,20.84
2023-05-21T06:05:50.510Z,20.93
2023-05-21T06:08:19.255Z,21.04
2023-05-21T06:10:47.818Z,21.11
2023-05-21T06:13:16.747Z,21.20
2023-05-21T06:15:45.432Z,21.30
2023-05-21T06:18:14.594Z,21.38
2023-05-21T06:20:46.088Z,21.43
2023-05-21T06:23:16.690Z,21.51
2023-05-21T06:25:46.891Z,21.57
2023-05-21T06:28:18.028Z,21.62
2023-05-21T06:30:46.744Z,21.68
2023-05-21T06:33:16.461Z,21.74
2023-05-21T06:35:46.959Z,21.78
2023-05-21T06:38:16.087Z,21.81
2023-05-21T06:40:47.628Z,21.86
2023-05-21T06:43:20.395Z,21.93
2023-05-21T06:46:07.767Z,21.99
2023-05-21T06:48:39.990Z,22.04
2023-05-21T06:51:09.190Z,22.10
2023-05-21T06:53:38.810Z,22.18
2023-05-21T06:56:07.775Z,22.24
2023-05-21T06:58:39.373Z,22.33
2023-05-21T07:01:08.284Z,22.40
2023-05-21T07:03:37.480Z,22.46
2023-05-21T07:06:06.955Z,22.52
2023-05-21T07:08:35.628Z,22.60
2023-05-21T07:11:06.967Z,22.68
2023-05-21T07:13:37.432Z,22.75
2023-05-21T07:16:06.905Z,22.82
2023-05-21T07:18:35.930Z,22.85
2023-05-21T07:21:04.996Z,22.88
2023-05-21T07:23:35.553Z,22.93
2023-05-21T07:26:05.039Z,23.01
2023-05-21T07:28:34.593Z,23.09
2023-05-21T07:31:03.876Z,23.17
2023-05-21T07:33:36.930Z,23.28
2023-05-21T07:36:06.420Z,23.35
2023-05-21T07:38:35.631Z,23.44
2023-05-21T07:41:04.638Z,23.53
2023-05-21T07:43:34.025Z,23.66
2023-05-21T07:46:03.132Z,23.78
2023-05-21T07:48:34.708Z,23.91
2023-05-21T07:51:04.981Z,24.00
2023-05-21T07:53:33.789Z,24.04
2023-05-21T07:56:04.308Z,24.08
2023-05-21T07:58:35.482Z,24.14
2023-05-21T08:01:04.345Z,24.17
2023-05-21T08:03:34.208Z,24.22
2023-05-21T08:06:04.201Z,24.28
2023-05-21T08:08:33.892Z,24.36
2023-05-21T08:11:02.670Z,24.45
2023-05-21T08:13:32.241Z,24.50
2023-05-21T08:16:00.903Z,24.58
2023-05-21T08:18:29.447Z,24.63
2023-05-21T08:20:59.056Z,24.71
2023-05-21T08:23:27.543Z,24.80
2023-05-21T08:25:57.337Z,24.82
2023-05-21T08:28:27.992Z,24.87
2023-05-21T08:30:56.880Z,24.96
2023-05-21T08:33:26.078Z,25.06
2023-05-21T08:35:54.576Z,25.15
2023-05-21T08:38:46.180Z,25.25
2023-05-21T08:41:22.550Z,25.32
2023-05-21T08:43:57.846Z,25.42
2023-05-21T08:46:32.692Z,25.47
2023-05-21T08:49:04.239Z,25.53
2023-05-21T08:51:34.187Z,25.55
2023-05-21T08:54:05.032Z,25.58
2023-05-21T08:56:34.887Z,25.63
2023-05-21T08:59:03.840Z,25.67
2023-05-21T09:01:35.939Z,25.69
2023-05-21T09:04:22.115Z,25.77
2023-05-21T09:06:55.082Z,25.89
2023-05-21T09:09:53.565Z,25.97
2023-05-21T09:12:22.950Z,26.05
2023-05-21T09:14:52.474Z,26.11
2023-05-21T09:17:25.371Z,26.15
2023-05-21T09:20:17.178Z,26.15
2023-05-21T09:22:51.767Z,26.21
2023-05-21T09:25:25.616Z,26.29
2023-05-21T09:27:56.373Z,26.39
2023-05-21T09:30:28.525Z,26.46
2023-05-21T09:33:00.338Z,26.56
2023-05-21T09:35:32.139Z,26.65
2023-05-21T09:38:04.347Z,26.75
2023-05-21T09:40:36.552Z,26.83
2023-05-21T09:43:05.669Z,26.88
2023-05-21T09:45:34.999Z,26.91
2023-05-21T09:48:04.175Z,26.97
2023-05-21T09:50:37.053Z,27.06
2023-05-21T09:53:12.732Z,27.14
2023-05-21T09:55:41.983Z,27.22
2023-05-21T09:58:10.989Z,27.31
2023-05-21T10:00:40.340Z,27.37
2023-05-21T10:03:14.506Z,27.47
2023-05-21T10:05:44.056Z,27.51
2023-05-21T10:08:14.659Z,27.47
2023-05-21T10:10:45.019Z,27.47
2023-05-21T10:13:18.690Z,27.42
2023-05-21T10:15:53.707Z,27.41
2023-05-21T10:18:24.566Z,27.44
2023-05-21T10:20:55.521Z,27.52
2023-05-21T10:23:25.844Z,27.57
2023-05-21T10:25:55.406Z,27.61
2023-05-21T10:28:24.410Z,27.65
2023-05-21T10:30:54.507Z,27.69
2023-05-21T10:34:15.467Z,27.72
2023-05-21T10:36:45.924Z,27.82
2023-05-21T10:39:20.251Z,27.87
2023-05-21T10:42:10.226Z,27.92
2023-05-21T10:45:17.785Z,27.95
2023-05-21T10:48:05.498Z,27.99
2023-05-21T10:50:59.287Z,28.04
2023-05-21T10:54:02.468Z,28.10
2023-05-21T10:57:06.225Z,28.13
2023-05-21T10:59:47.954Z,28.20
2023-05-21T11:02:20.567Z,28.24
2023-05-21T11:05:01.058Z,28.27
2023-05-21T11:07:58.517Z,28.29
2023-05-21T11:10:40.099Z,28.34
2023-05-21T11:13:14.997Z,28.36
2023-05-21T11:16:15.677Z,28.39
2023-05-21T11:18:47.495Z,28.43
2023-05-21T11:21:18.738Z,28.48
2023-05-21T11:23:55.723Z,28.51
2023-05-21T11:26:26.463Z,28.53
2023-05-21T11:29:03.838Z,28.53
2023-05-21T11:31:38.597Z,28.53
2023-05-21T11:34:40.033Z,28.54
2023-05-21T11:37:18.028Z,28.46
2023-05-21T11:39:47.694Z,28.44
2023-05-21T11:42:34.074Z,28.41
2023-05-21T11:45:04.357Z,28.26
2023-05-21T11:47:33.206Z,28.18
2023-05-21T11:50:03.669Z,28.17
2023-05-21T11:52:33.341Z,28.19
2023-05-21T11:55:02.068Z,28.23
2023-05-21T11:57:31.371Z,28.29
2023-05-21T12:00:02.646Z,28.29
2023-05-21T12:02:48.478Z,28.27
2023-05-21T12:05:17.528Z,28.33
2023-05-21T12:07:54.812Z,28.44
2023-05-21T12:10:24.409Z,28.59
2023-05-21T12:12:57.026Z,28.68
2023-05-21T12:15:27.158Z,28.73
2023-05-21T12:17:56.339Z,28.82
2023-05-21T12:20:30.191Z,28.84
2023-05-21T12:22:59.733Z,28.78
2023-05-21T12:25:30.234Z,28.74
2023-05-21T12:27:59.069Z,28.78
2023-05-21T12:30:30.670Z,28.82
2023-05-21T12:33:02.421Z,28.84
2023-05-21T12:35:32.626Z,28.87
2023-05-21T12:38:05.540Z,28.91
2023-05-21T12:40:39.044Z,28.96
2023-05-21T12:43:09.172Z,29.03
2023-05-21T12:45:39.728Z,29.05
2023-05-21T12:48:09.210Z,29.04
2023-05-21T12:50:42.033Z,29.03
2023-05-21T12:53:12.536Z,28.99
2023-05-21T12:55:41.298Z,28.94
2023-05-21T12:58:14.357Z,28.92
2023-05-21T13:00:44.388Z,28.96
2023-05-21T13:03:13.269Z,28.98
2023-05-21T13:05:42.698Z,29.03
2023-05-21T13:08:11.688Z,29.07
2023-05-21T13:10:40.265Z,29.08
2023-05-21T13:13:10.269Z,29.04
2023-05-21T13:15:39.348Z,29.04
2023-05-21T13:18:08.011Z,29.02
2023-05-21T13:20:37.178Z,29.01
2023-05-21T13:23:07.704Z,29.00
2023-05-21T13:25:38.019Z,28.98
2023-05-21T13:28:08.970Z,28.95
2023-05-21T13:30:37.957Z,28.94
2023-05-21T13:33:07.319Z,28.94
2023-05-21T13:35:36.140Z,28.97
2023-05-21T13:38:04.935Z,29.04
2023-05-21T13:40:38.093Z,29.05
2023-05-21T13:43:09.166Z,29.00
2023-05-21T13:45:45.511Z,29.09
2023-05-21T13:48:15.894Z,29.09
2023-05-21T13:50:46.648Z,29.05
2023-05-21T13:53:15.483Z,29.02
2023-05-21T13:55:45.394Z,28.93
2023-05-21T13:58:15.290Z,28.84
2023-05-21T14:00:43.954Z,28.80
2023-05-21T14:03:12.463Z,28.77
2023-05-21T14:05:41.380Z,28.74
2023-05-21T14:08:11.625Z,28.69
2023-05-21T14:10:42.127Z,28.65
2023-05-21T14:13:19.167Z,28.59
2023-05-21T14:15:50.310Z,28.50
2023-05-21T14:18:18.715Z,28.41
2023-05-21T14:20:47.216Z,28.40
2023-05-21T14:23:15.698Z,28.34
2023-05-21T14:25:44.262Z,28.29
2023-05-21T14:28:13.680Z,28.24
2023-05-21T14:30:42.879Z,28.15
2023-05-21T14:33:13.637Z,28.07
2023-05-21T14:35:44.303Z,28.01
2023-05-21T14:38:13.596Z,27.95
2023-05-21T14:40:42.559Z,27.90
2023-05-21T14:43:11.026Z,27.87
2023-05-21T14:45:39.612Z,27.88
2023-05-21T14:48:09.590Z,27.93
2023-05-21T14:50:39.734Z,27.98
2023-05-21T14:53:10.063Z,28.00
2023-05-21T14:55:39.079Z,28.00
2023-05-21T14:58:08.523Z,27.97
2023-05-21T15:00:38.157Z,27.97
2023-05-21T15:03:06.826Z,27.99
2023-05-21T15:05:36.724Z,28.06
2023-05-21T15:08:06.365Z,28.09
2023-05-21T15:10:35.872Z,28.06
2023-05-21T15:13:04.645Z,28.21
2023-05-21T15:15:33.137Z,28.25
2023-05-21T15:18:01.639Z,28.27
2023-05-21T15:20:29.995Z,28.24
2023-05-21T15:25:32.602Z,28.10
2023-05-21T15:28:01.066Z,27.98
2023-05-21T15:30:31.846Z,27.93
2023-05-21T15:33:00.119Z,27.83
2023-05-21T15:35:28.950Z,27.75
2023-05-21T15:37:57.570Z,27.66
2023-05-21T15:40:27.252Z,27.56
2023-05-21T15:42:55.941Z,27.43
2023-05-21T15:45:24.962Z,27.38
2023-05-21T15:47:53.500Z,27.35
2023-05-21T15:50:21.997Z,27.29
2023-05-21T15:52:52.382Z,27.30
2023-05-21T15:55:22.017Z,27.35
2023-05-21T15:57:50.661Z,27.44
2023-05-21T16:00:19.447Z,27.53
2023-05-21T16:02:48.445Z,27.63
2023-05-21T16:05:17.329Z,27.71
2023-05-21T16:07:46.618Z,27.76
2023-05-21T16:10:15.001Z,27.78
2023-05-21T16:12:43.229Z,27.80
2023-05-21T16:15:11.756Z,27.81
2023-05-21T16:17:41.277Z,27.77
2023-05-21T16:20:10.251Z,27.73
2023-05-21T16:22:38.722Z,27.68
2023-05-21T16:25:08.406Z,27.60
2023-05-21T16:27:37.335Z,27.51
2023-05-21T16:30:07.671Z,27.45
2023-05-21T16:32:36.045Z,27.36
2023-05-21T16:35:04.992Z,27.29
2023-05-21T16:37:34.591Z,27.23
2023-05-21T16:40:03.017Z,27.18
2023-05-21T16:42:31.390Z,27.12
2023-05-21T16:45:00.109Z,27.05
2023-05-21T16:47:29.797Z,27.01
2023-05-21T16:49:58.990Z,27.01
2023-05-21T16:52:27.674Z,26.99
2023-05-21T16:54:56.450Z,26.97
2023-05-21T16:57:24.826Z,26.95
2023-05-21T16:59:54.164Z,26.92
2023-05-21T17:02:25.111Z,26.89
2023-05-21T17:04:53.860Z,26.84
2023-05-21T17:07:22.771Z,26.78
2023-05-21T17:09:51.780Z,26.72
2023-05-21T17:12:21.254Z,26.67
2023-05-21T17:14:55.890Z,26.63
2023-05-21T17:17:29.456Z,26.58
2023-05-21T17:19:59.493Z,26.51
2023-05-21T17:22:28.894Z,26.44
2023-05-21T17:24:57.582Z,26.36
2023-05-21T17:27:26.074Z,26.28
2023-05-21T17:29:54.868Z,26.21
2023-05-21T17:32:23.777Z,26.15
2023-05-21T17:34:54.282Z,26.09
2023-05-21T17:37:23.081Z,26.02
2023-05-21T17:39:52.235Z,25.94
2023-05-21T17:42:20.975Z,25.84
2023-05-21T17:44:49.742Z,25.73
2023-05-21T17:47:19.349Z,25.62
2023-05-21T17:49:48.025Z,25.53
2023-05-21T17:52:17.029Z,25.42
2023-05-21T17:54:46.120Z,25.29
2023-05-21T17:57:16.422Z,25.24
2023-05-21T17:59:46.075Z,25.15
2023-05-21T18:02:15.650Z,25.03
2023-05-21T18:04:44.789Z,24.93
2023-05-21T18:07:13.446Z,24.83
2023-05-21T18:09:43.285Z,24.73
2023-05-21T18:12:12.468Z,24.66
2023-05-21T18:14:41.036Z,24.57
2023-05-21T18:17:09.945Z,24.47
2023-05-21T18:19:38.608Z,24.38
2023-05-21T18:22:19.716Z,24.27
2023-05-21T18:24:50.530Z,24.17
2023-05-21T18:27:19.104Z,24.08
2023-05-21T18:29:49.556Z,23.99
2023-05-21T18:32:18.156Z,23.91
2023-05-21T18:34:48.142Z,23.80
2023-05-21T18:37:17.426Z,23.70
2023-05-21T18:39:46.371Z,23.60
2023-05-21T18:42:15.570Z,23.49
2023-05-21T18:44:46.788Z,23.39
2023-05-21T18:47:15.917Z,23.29
2023-05-21T18:49:46.296Z,23.19
2023-05-21T18:52:15.704Z,23.09
2023-05-21T18:54:44.836Z,23.00
2023-05-21T18:57:14.198Z,22.91
2023-05-21T18:59:43.984Z,22.82
2023-05-21T19:02:14.503Z,22.74
2023-05-21T19:04:44.618Z,22.66
2023-05-21T19:07:14.369Z,22.58
2023-05-21T19:09:43.576Z,22.50
2023-05-21T19:12:12.463Z,22.43
2023-05-21T19:14:45.456Z,22.37
2023-05-21T19:17:15.368Z,22.30
2023-05-21T19:19:44.770Z,22.23
2023-05-21T19:22:14.064Z,22.16
2023-05-21T19:24:45.721Z,22.10
2023-05-21T19:27:18.486Z,22.04
2023-05-21T19:29:49.140Z,21.97
2023-05-21T19:32:21.137Z,21.90
2023-05-21T19:34:52.930Z,21.83
2023-05-21T19:37:26.882Z,21.76
2023-05-21T19:39:57.306Z,21.69
2023-05-21T19:42:27.141Z,21.64
2023-05-21T19:44:57.051Z,21.58
2023-05-21T19:47:26.927Z,21.52
2023-05-21T19:49:57.209Z,21.46
2023-05-21T19:52:27.249Z,21.39
2023-05-21T19:55:04.999Z,21.29
2023-05-21T19:57:35.077Z,21.17
2023-05-21T20:00:05.761Z,21.06
2023-05-21T20:02:41.617Z,20.93
2023-05-21T20:05:11.880Z,20.81
2023-05-21T20:07:42.132Z,20.70
2023-05-21T20:10:12.070Z,20.59
2023-05-21T20:12:41.763Z,20.52
2023-05-21T20:15:13.746Z,20.43
2023-05-21T20:17:44.527Z,20.38
2023-05-21T20:20:14.947Z,20.31
2023-05-21T20:22:45.472Z,20.25
2023-05-21T20:25:15.540Z,20.18
2023-05-21T20:27:44.935Z,20.12
2023-05-21T20:30:14.463Z,20.04
2023-05-21T20:32:43.270Z,19.97
2023-05-21T20:35:13.234Z,19.89
2023-05-21T20:37:42.532Z,19.83
2023-05-21T20:40:14.675Z,19.76
2023-05-21T20:42:45.655Z,19.68
2023-05-21T20:45:16.578Z,19.59
2023-05-21T20:47:47.530Z,19.51
2023-05-21T20:50:18.003Z,19.42
2023-05-21T20:52:47.407Z,19.33
2023-05-21T20:55:17.260Z,19.24
2023-05-21T20:57:47.878Z,19.16
2023-05-21T21:00:17.295Z,19.10
2023-05-21T21:02:46.514Z,19.06
2023-05-21T21:05:17.044Z,19.02
2023-05-21T21:07:46.105Z,19.00
2023-05-21T21:10:15.667Z,18.95
2023-05-21T21:12:44.931Z,18.89
2023-05-21T21:15:14.127Z,18.84
2023-05-21T21:17:42.922Z,18.80
2023-05-21T21:20:13.832Z,18.74
2023-05-21T21:22:42.534Z,18.69
2023-05-21T21:25:11.638Z,18.64
2023-05-21T21:27:40.512Z,18.59
2023-05-21T21:30:12.309Z,18.54
2023-05-21T21:32:41.630Z,18.51
2023-05-21T21:35:11.018Z,18.47
2023-05-21T21:37:40.021Z,18.44
2023-05-21T21:40:12.681Z,18.39
2023-05-21T21:42:42.770Z,18.37
2023-05-21T21:45:11.761Z,18.34
2023-05-21T21:47:40.456Z,18.32
2023-05-21T21:50:09.753Z,18.31
2023-05-21T21:52:41.935Z,18.29
2023-05-21T21:55:11.434Z,18.28
2023-05-21T21:57:40.221Z,18.29
2023-05-21T22:00:11.582Z,18.30
2023-05-21T22:02:40.535Z,18.32
2023-05-21T22:05:09.766Z,18.33
2023-05-21T22:07:39.026Z,18.33
2023-05-21T22:10:09.049Z,18.33
2023-05-21T22:12:38.270Z,18.34
2023-05-21T22:15:08.130Z,18.33
2023-05-21T22:17:39.397Z,18.33
2023-05-21T22:20:10.632Z,18.34
2023-05-21T22:22:41.613Z,18.33
2023-05-21T22:25:10.523Z,18.32
2023-05-21T22:27:42.453Z,18.31
2023-05-21T22:30:11.773Z,18.29
2023-05-21T22:32:43.474Z,18.28
2023-05-21T22:35:12.944Z,18.26
2023-05-21T22:37:44.182Z,18.23
2023-05-21T22:40:17.988Z,18.21
2023-05-21T22:42:49.235Z,18.18
2023-05-21T22:45:24.077Z,18.16
2023-05-21T22:47:56.990Z,18.13
2023-05-21T22:50:41.689Z,18.11
2023-05-21T22:53:10.711Z,18.09
2023-05-21T22:55:42.585Z,18.07
2023-05-21T22:58:14.280Z,18.05
2023-05-21T23:00:44.450Z,18.03
2023-05-21T23:03:13.782Z,18.02
2023-05-21T23:05:43.020Z,18.00
2023-05-21T23:08:11.946Z,17.97
2023-05-21T23:10:42.984Z,17.94
2023-05-21T23:13:13.027Z,17.91
2023-05-21T23:15:44.575Z,17.83
2023-05-21T23:18:13.614Z,17.86
2023-05-21T23:20:43.997Z,17.84
2023-05-21T23:23:18.390Z,17.81
2023-05-21T23:25:48.097Z,17.78
2023-05-21T23:28:20.755Z,17.76
2023-05-21T23:30:49.578Z,17.72
2023-05-21T23:33:18.663Z,17.69
2023-05-21T23:35:47.682Z,17.66
2023-05-21T23:38:16.241Z,17.63
2023-05-21T23:40:45.022Z,17.60
2023-05-21T23:43:13.822Z,17.56
2023-05-21T23:45:42.837Z,17.52
2023-05-21T23:48:14.184Z,17.48
2023-05-21T23:50:43.695Z,17.45
2023-05-21T23:53:15.331Z,17.43
2023-05-21T23:55:47.699Z,17.41
2023-05-21T23:58:16.685Z,17.37
